Ararat, Virginia
Current Conditions -  °F | °C
As of 10:35 PM on Friday 24 Oct 2014 (Local Time) from KMWK Reporting Station
Clear Clear  
Wind Chill: 51°   Ceiling: Unl
Heat Index: 51°   Visibility: 10mi
Dew Point: 38°   Wind: 0mph
Humidity: 63%   Direction: NA
Pressure: 30.04"   Gusts: NA
Location:  36.6°N, 80.51°W
Report Text: KMWK 250235Z AUTO 00000KT 10SM CLR 10/04 A3004 RMK AO2 T01030035
Loading
Personal Weather Stations






























Interactive Weather Map
Tropical Storm Tracking
New forecast layout! Learn more

10-Day Weather Forecast

Advertisements
Track Severe Weather on mobile